createdAt,value
2022-10-19T00:02:15.366Z,11.20
2022-10-19T00:04:41.745Z,10.07
2022-10-19T00:07:08.152Z,9.90
2022-10-19T00:09:34.594Z,8.00
2022-10-19T00:12:00.948Z,7.38
2022-10-19T00:14:27.265Z,7.88
2022-10-19T00:16:54.508Z,7.57
2022-10-19T00:19:27.873Z,7.70
2022-10-19T00:21:54.766Z,7.50
2022-10-19T00:24:21.206Z,7.50
2022-10-19T00:26:47.569Z,8.02
2022-10-19T00:29:16.372Z,7.78
2022-10-19T00:31:42.877Z,8.63
2022-10-19T00:34:09.642Z,8.57
2022-10-19T00:36:37.424Z,8.30
2022-10-19T00:39:04.433Z,8.20
2022-10-19T00:41:32.360Z,8.10
2022-10-19T00:44:01.854Z,8.88
2022-10-19T00:46:29.504Z,9.48
2022-10-19T00:49:01.173Z,8.98
2022-10-19T00:51:28.592Z,9.55
2022-10-19T00:53:56.221Z,10.00
2022-10-19T00:56:23.157Z,10.10
2022-10-19T00:58:49.622Z,10.82
2022-10-19T01:01:17.443Z,10.45
2022-10-19T01:03:44.708Z,10.35
2022-10-19T01:06:12.097Z,10.82
2022-10-19T01:08:38.393Z,11.57
2022-10-19T01:11:10.554Z,11.60
2022-10-19T01:13:48.896Z,11.73
2022-10-19T01:16:21.653Z,12.63
2022-10-19T01:18:48.177Z,12.38
2022-10-19T01:21:20.689Z,12.50
2022-10-19T01:23:55.948Z,12.57
2022-10-19T01:26:40.991Z,12.07
2022-10-19T01:29:21.975Z,11.65
2022-10-19T01:31:51.226Z,11.57
2022-10-19T01:34:34.002Z,12.68
2022-10-19T01:37:06.351Z,12.70
2022-10-19T01:39:43.390Z,11.43
2022-10-19T01:42:17.421Z,9.98
2022-10-19T01:45:16.149Z,10.25
2022-10-19T01:47:47.071Z,9.90
2022-10-19T01:50:16.508Z,9.85
2022-10-19T01:52:42.956Z,9.10
2022-10-19T01:55:10.928Z,9.57
2022-10-19T01:57:40.617Z,9.48
2022-10-19T02:00:08.249Z,9.65
2022-10-19T02:02:36.412Z,9.55
2022-10-19T02:05:06.681Z,10.25
2022-10-19T02:07:33.674Z,10.57
2022-10-19T02:10:00.205Z,9.85
2022-10-19T02:12:28.588Z,11.93
2022-10-19T02:14:57.669Z,10.90
2022-10-19T02:17:28.711Z,10.73
2022-10-19T02:19:55.126Z,10.73
2022-10-19T02:22:21.735Z,10.68
2022-10-19T02:24:50.235Z,11.50
2022-10-19T02:27:16.819Z,12.85
2022-10-19T02:29:43.307Z,12.18
2022-10-19T02:32:10.157Z,11.77
2022-10-19T02:34:37.281Z,12.75
2022-10-19T02:37:03.818Z,11.77
2022-10-19T02:39:30.251Z,12.55
2022-10-19T02:42:00.441Z,11.50
2022-10-19T02:44:29.873Z,12.20
2022-10-19T02:47:08.475Z,13.25
2022-10-19T02:49:36.745Z,13.10
2022-10-19T02:52:04.818Z,14.18
2022-10-19T02:54:31.527Z,13.40
2022-10-19T02:56:57.831Z,13.35
2022-10-19T02:59:24.706Z,13.35
2022-10-19T03:01:51.131Z,13.57
2022-10-19T03:04:17.663Z,13.93
2022-10-19T03:06:44.198Z,14.63
2022-10-19T03:09:10.633Z,13.77
2022-10-19T03:11:36.974Z,14.82
2022-10-19T03:14:03.373Z,14.07
2022-10-19T03:16:30.725Z,14.77
2022-10-19T03:18:57.096Z,14.07
2022-10-19T03:21:23.477Z,13.88
2022-10-19T03:23:50.105Z,13.90
2022-10-19T03:26:16.862Z,14.02
2022-10-19T03:28:43.228Z,13.45
2022-10-19T03:31:09.690Z,13.70
2022-10-19T03:33:35.996Z,13.20
2022-10-19T03:36:18.015Z,13.43
2022-10-19T03:38:44.524Z,12.52
2022-10-19T03:41:11.357Z,13.18
2022-10-19T03:43:37.888Z,12.80
2022-10-19T03:46:04.259Z,14.05
2022-10-19T03:48:30.651Z,12.18
2022-10-19T03:51:16.925Z,13.02
2022-10-19T03:53:43.566Z,12.60
2022-10-19T03:56:14.190Z,12.13
2022-10-19T03:58:41.645Z,12.45
2022-10-19T04:01:09.777Z,11.23
2022-10-19T04:06:09.040Z,11.75
2022-10-19T04:08:35.678Z,11.20
2022-10-19T04:11:03.074Z,10.50
2022-10-19T04:13:29.762Z,11.13
2022-10-19T04:15:56.114Z,10.02
2022-10-19T04:18:22.519Z,9.82
2022-10-19T04:20:48.842Z,9.70
2022-10-19T04:25:41.451Z,10.50
2022-10-19T04:28:07.954Z,10.43
2022-10-19T04:30:34.274Z,10.13
2022-10-19T04:33:00.599Z,9.85
2022-10-19T04:35:27.193Z,9.32
2022-10-19T04:37:53.568Z,10.65
2022-10-19T04:40:19.939Z,10.68
2022-10-19T04:42:46.368Z,11.05
2022-10-19T04:45:12.720Z,10.60
2022-10-19T04:47:39.123Z,9.88
2022-10-19T04:50:05.637Z,11.25
2022-10-19T04:52:32.015Z,9.68
2022-10-19T04:55:02.656Z,9.48
2022-10-19T04:57:29.256Z,10.00
2022-10-19T04:59:55.734Z,10.82
2022-10-19T05:02:22.230Z,9.35
2022-10-19T05:04:49.060Z,9.85
2022-10-19T05:07:15.506Z,10.15
2022-10-19T05:09:41.890Z,10.18
2022-10-19T05:12:08.535Z,10.60
2022-10-19T05:14:36.748Z,10.30
2022-10-19T05:17:05.590Z,10.00
2022-10-19T05:19:31.952Z,10.68
2022-10-19T05:21:58.281Z,10.73
2022-10-19T05:24:24.670Z,10.88
2022-10-19T05:26:51.124Z,10.35
2022-10-19T05:29:17.619Z,9.85
2022-10-19T05:31:43.986Z,10.40
2022-10-19T05:34:10.375Z,9.95
2022-10-19T05:36:37.959Z,11.07
2022-10-19T05:39:05.937Z,9.65
2022-10-19T05:41:32.321Z,10.30
2022-10-19T05:44:01.643Z,9.55
2022-10-19T05:46:29.084Z,10.35
2022-10-19T05:48:56.438Z,9.73
2022-10-19T05:51:24.117Z,10.25
2022-10-19T05:53:50.586Z,10.05
2022-10-19T05:56:21.430Z,10.10
2022-10-19T05:58:48.242Z,10.60
2022-10-19T06:01:14.936Z,9.43
2022-10-19T06:03:41.582Z,10.88
2022-10-19T06:06:08.430Z,10.55
2022-10-19T06:08:34.977Z,9.75
2022-10-19T06:11:11.702Z,8.63
2022-10-19T06:13:39.105Z,8.63
2022-10-19T06:16:06.151Z,8.90
2022-10-19T06:18:32.714Z,8.50
2022-10-19T06:21:04.104Z,8.48
2022-10-19T06:23:30.877Z,8.98
2022-10-19T06:25:57.251Z,8.88
2022-10-19T06:28:23.685Z,8.10
2022-10-19T06:30:50.126Z,8.02
2022-10-19T06:33:16.528Z,8.93
2022-10-19T06:35:43.083Z,7.45
2022-10-19T06:38:09.743Z,8.18
2022-10-19T06:40:36.228Z,8.23
2022-10-19T06:43:02.635Z,7.80
2022-10-19T06:45:32.293Z,7.45
2022-10-19T06:48:05.008Z,7.53
2022-10-19T06:50:34.165Z,7.90
2022-10-19T06:53:00.498Z,7.68
2022-10-19T06:55:28.039Z,7.60
2022-10-19T06:57:54.390Z,12.80
2022-10-19T07:00:20.780Z,13.70
2022-10-19T07:02:48.139Z,9.93
2022-10-19T07:05:14.603Z,7.57
2022-10-19T07:07:40.929Z,7.47
2022-10-19T07:10:07.462Z,6.35
2022-10-19T07:12:33.885Z,6.10
2022-10-19T07:15:00.230Z,5.28
2022-10-19T07:17:26.616Z,5.45
2022-10-19T07:19:52.978Z,4.60
2022-10-19T07:22:24.360Z,4.70
2022-10-19T07:24:54.609Z,4.32
2022-10-19T07:27:20.967Z,4.45
2022-10-19T07:29:47.336Z,4.07
2022-10-19T07:32:13.734Z,3.85
2022-10-19T07:34:40.129Z,3.25
2022-10-19T07:37:06.705Z,2.92
2022-10-19T07:39:33.070Z,3.13
2022-10-19T07:42:01.394Z,3.50
2022-10-19T07:44:27.991Z,2.83
2022-10-19T07:46:54.535Z,3.25
2022-10-19T07:49:21.740Z,3.20
2022-10-19T07:51:48.296Z,3.10
2022-10-19T07:54:14.661Z,3.05
2022-10-19T07:56:41.063Z,3.47
2022-10-19T07:59:07.509Z,2.90
2022-10-19T08:01:35.577Z,4.55
2022-10-19T08:06:48.563Z,3.13
2022-10-19T08:09:33.411Z,3.50
2022-10-19T08:12:01.517Z,3.22
2022-10-19T08:14:28.020Z,3.72
2022-10-19T08:16:54.367Z,3.28
2022-10-19T08:19:22.588Z,3.47
2022-10-19T08:21:49.022Z,3.70
2022-10-19T08:24:16.298Z,3.70
2022-10-19T08:26:42.645Z,2.70
2022-10-19T08:29:09.021Z,2.70
2022-10-19T08:31:36.109Z,2.40
2022-10-19T08:34:02.572Z,2.88
2022-10-19T08:36:31.332Z,2.28
2022-10-19T08:38:57.905Z,2.65
2022-10-19T08:41:24.389Z,2.80
2022-10-19T08:44:06.252Z,3.40
2022-10-19T08:46:41.713Z,3.28
2022-10-19T08:49:09.562Z,3.63
2022-10-19T08:51:37.297Z,3.20
2022-10-19T08:54:12.187Z,2.95
2022-10-19T08:56:51.992Z,2.75
2022-10-19T08:59:25.858Z,2.15
2022-10-19T09:01:54.803Z,2.40
2022-10-19T09:04:26.016Z,2.80
2022-10-19T09:06:52.309Z,2.63
2022-10-19T09:09:19.592Z,2.65
2022-10-19T09:11:50.878Z,2.38
2022-10-19T09:14:30.316Z,1.50
2022-10-19T09:16:59.987Z,1.80
2022-10-19T09:19:29.958Z,3.45
2022-10-19T09:22:16.600Z,2.00
2022-10-19T09:24:52.253Z,2.22
2022-10-19T09:35:03.726Z,1.88
2022-10-19T09:40:01.498Z,1.88
2022-10-19T09:42:30.275Z,2.55
2022-10-19T09:44:58.303Z,2.13
2022-10-19T09:47:35.687Z,2.00
2022-10-19T09:50:25.456Z,1.88
2022-10-19T09:52:53.222Z,1.70
2022-10-19T09:55:22.502Z,2.50
2022-10-19T09:57:50.223Z,1.88
2022-10-19T10:00:31.384Z,2.20
2022-10-19T10:02:57.698Z,1.50
2022-10-19T10:05:35.779Z,1.90
2022-10-19T10:08:02.712Z,2.35
2022-10-19T10:10:32.501Z,2.85
2022-10-19T10:12:59.887Z,1.88
2022-10-19T10:15:27.526Z,2.13
2022-10-19T10:17:55.456Z,1.45
2022-10-19T10:20:30.454Z,1.48
2022-10-19T10:22:59.149Z,1.67
2022-10-19T10:25:27.041Z,1.20
2022-10-19T10:27:55.377Z,1.45
2022-10-19T10:30:21.676Z,1.27
2022-10-19T10:32:53.029Z,2.00
2022-10-19T10:35:25.454Z,1.48
2022-10-19T10:37:52.176Z,1.23
2022-10-19T10:40:24.008Z,1.35
2022-10-19T10:42:51.549Z,2.00
2022-10-19T10:45:36.842Z,1.45
2022-10-19T10:48:12.574Z,1.63
2022-10-19T10:50:39.512Z,1.63
2022-10-19T10:53:07.554Z,1.35
2022-10-19T10:55:34.354Z,0.80
2022-10-19T10:58:11.846Z,1.38
2022-10-19T11:00:40.370Z,1.30
2022-10-19T11:03:18.835Z,0.95
2022-10-19T11:05:46.748Z,1.25
2022-10-19T11:08:18.992Z,0.80
2022-10-19T11:10:49.940Z,0.85
2022-10-19T11:13:21.120Z,0.90
2022-10-19T11:15:53.024Z,0.90
2022-10-19T11:18:22.349Z,0.73
2022-10-19T11:21:07.278Z,1.10
2022-10-19T11:23:40.425Z,1.13
2022-10-19T11:26:06.704Z,1.05
2022-10-19T11:28:36.321Z,1.20
2022-10-19T11:31:02.602Z,1.20
2022-10-19T11:33:41.067Z,1.30
2022-10-19T11:36:15.318Z,1.60
2022-10-19T11:38:56.059Z,1.30
2022-10-19T11:41:40.975Z,1.42
2022-10-19T11:44:21.170Z,1.55
2022-10-19T11:46:56.630Z,1.60
2022-10-19T11:49:52.645Z,1.80
2022-10-19T11:52:25.091Z,1.67
2022-10-19T11:54:51.795Z,1.40
2022-10-19T11:57:27.616Z,2.10
2022-10-19T12:00:27.296Z,1.85
2022-10-19T12:03:10.121Z,1.80
2022-10-19T12:05:36.436Z,1.10
2022-10-19T12:08:21.505Z,1.10
2022-10-19T12:10:52.290Z,1.05
2022-10-19T12:13:21.998Z,1.33
2022-10-19T12:15:49.749Z,1.17
2022-10-19T12:18:18.950Z,1.30
2022-10-19T12:20:48.063Z,1.67
2022-10-19T12:23:17.503Z,1.30
2022-10-19T12:25:45.031Z,1.30
2022-10-19T12:28:18.786Z,1.38
2022-10-19T12:30:45.278Z,1.00
2022-10-19T12:33:23.341Z,1.17
2022-10-19T12:36:06.705Z,1.10
2022-10-19T12:38:40.967Z,1.42
2022-10-19T12:41:11.410Z,1.23
2022-10-19T12:43:52.025Z,1.33
2022-10-19T12:46:32.335Z,1.30
2022-10-19T12:49:17.514Z,1.20
2022-10-19T12:51:47.300Z,0.82
2022-10-19T12:54:13.760Z,1.40
2022-10-19T12:56:47.647Z,1.30
2022-10-19T12:59:22.855Z,1.00
2022-10-19T13:01:49.234Z,1.45
2022-10-19T13:04:15.625Z,0.90
2022-10-19T13:06:47.422Z,0.93
2022-10-19T13:09:25.923Z,0.90
2022-10-19T13:12:11.365Z,1.00
2022-10-19T13:14:40.965Z,0.82
2022-10-19T13:17:08.046Z,0.90
2022-10-19T13:19:34.394Z,1.10
2022-10-19T13:22:01.193Z,0.98
2022-10-19T13:24:27.569Z,0.80
2022-10-19T13:27:01.908Z,0.82
2022-10-19T13:29:39.718Z,0.90
2022-10-19T13:32:24.582Z,0.98
2022-10-19T13:34:50.945Z,0.90
2022-10-19T13:37:18.493Z,0.85
2022-10-19T13:39:46.413Z,1.38
2022-10-19T13:42:27.106Z,1.08
2022-10-19T13:44:53.804Z,0.75
2022-10-19T13:47:20.310Z,0.80
2022-10-19T13:49:47.168Z,0.90
2022-10-19T13:52:19.749Z,0.90
2022-10-19T13:54:58.660Z,1.20
2022-10-19T13:57:25.158Z,0.80
2022-10-19T13:59:51.506Z,0.90
2022-10-19T14:02:17.807Z,0.70
2022-10-19T14:05:02.857Z,0.95
2022-10-19T14:07:36.329Z,0.60
2022-10-19T14:10:28.321Z,1.17
2022-10-19T14:17:55.349Z,1.00
2022-10-19T14:20:24.710Z,1.10
2022-10-19T14:22:51.083Z,0.95
2022-10-19T14:25:20.592Z,0.90
2022-10-19T14:27:47.779Z,0.80
2022-10-19T14:30:21.566Z,0.90
2022-10-19T14:32:48.112Z,1.00
2022-10-19T14:35:22.446Z,0.82
2022-10-19T14:37:49.092Z,0.80
2022-10-19T14:40:26.412Z,1.00
2022-10-19T14:42:54.512Z,1.23
2022-10-19T14:45:28.839Z,1.08
2022-10-19T14:47:55.163Z,1.00
2022-10-19T14:50:23.042Z,0.98
2022-10-19T14:52:52.183Z,1.00
2022-10-19T14:55:20.133Z,1.17
2022-10-19T14:57:49.067Z,1.20
2022-10-19T15:00:18.094Z,0.95
2022-10-19T15:02:57.006Z,1.13
2022-10-19T15:05:24.594Z,1.05
2022-10-19T15:07:51.191Z,1.10
2022-10-19T15:10:19.233Z,0.90
2022-10-19T15:12:45.804Z,1.10
2022-10-19T15:15:15.268Z,1.17
2022-10-19T15:18:03.059Z,1.05
2022-10-19T15:20:43.953Z,1.30
2022-10-19T15:23:36.191Z,1.50
2022-10-19T15:26:16.747Z,1.50
2022-10-19T15:28:44.269Z,1.40
2022-10-19T15:31:21.112Z,1.50
2022-10-19T15:33:51.718Z,1.75
2022-10-19T15:36:19.639Z,1.50
2022-10-19T15:39:18.165Z,1.70
2022-10-19T15:41:52.077Z,1.70
2022-10-19T15:44:39.923Z,1.35
2022-10-19T15:47:20.393Z,1.75
2022-10-19T15:49:56.108Z,1.48
2022-10-19T15:59:41.562Z,1.80
2022-10-19T16:02:13.594Z,1.40
2022-10-19T16:04:40.008Z,1.38
2022-10-19T16:07:07.172Z,1.35
2022-10-19T16:09:34.460Z,1.60
2022-10-19T16:12:00.824Z,2.00
2022-10-19T16:14:28.344Z,2.00
2022-10-19T16:16:54.906Z,1.80
2022-10-19T16:19:21.284Z,1.33
2022-10-19T16:21:50.297Z,1.60
2022-10-19T16:24:16.948Z,1.80
2022-10-19T16:26:43.315Z,2.10
2022-10-19T16:29:09.618Z,1.35
2022-10-19T16:31:37.404Z,1.50
2022-10-19T16:34:03.701Z,1.60
2022-10-19T16:36:30.210Z,1.33
2022-10-19T16:38:56.624Z,1.00
2022-10-19T16:41:26.917Z,1.00
2022-10-19T16:43:56.659Z,1.02
2022-10-19T16:46:23.368Z,1.02
2022-10-19T16:48:49.806Z,1.25
2022-10-19T16:51:25.262Z,1.50
2022-10-19T16:53:53.408Z,1.30
2022-10-19T16:56:19.944Z,1.10
2022-10-19T16:58:46.536Z,1.17
2022-10-19T17:01:15.911Z,1.20
2022-10-19T17:03:42.770Z,1.63
2022-10-19T17:06:09.396Z,1.60
2022-10-19T17:08:37.062Z,1.80
2022-10-19T17:11:11.109Z,1.80
2022-10-19T17:13:37.575Z,1.73
2022-10-19T17:16:04.927Z,2.03
2022-10-19T17:18:31.381Z,2.33
2022-10-19T17:21:05.002Z,2.10
2022-10-19T17:23:31.544Z,1.95
2022-10-19T17:25:57.961Z,1.98
2022-10-19T17:28:27.606Z,1.77
2022-10-19T17:30:54.277Z,1.75
2022-10-19T17:33:21.446Z,1.77
2022-10-19T17:35:47.985Z,1.65
2022-10-19T17:38:14.431Z,1.50
2022-10-19T17:40:40.867Z,1.42
2022-10-19T17:43:07.144Z,1.40
2022-10-19T17:45:33.533Z,1.55
2022-10-19T17:47:59.933Z,1.60
2022-10-19T17:50:26.237Z,1.67
2022-10-19T17:52:52.653Z,1.88
2022-10-19T17:55:19.114Z,2.00
2022-10-19T17:57:45.500Z,2.17
2022-10-19T18:00:12.090Z,2.28
2022-10-19T18:02:38.516Z,2.38
2022-10-19T18:05:05.307Z,2.40
2022-10-19T18:07:32.143Z,2.15
2022-10-19T18:09:58.755Z,2.38
2022-10-19T18:12:25.451Z,2.38
2022-10-19T18:14:51.763Z,1.90
2022-10-19T18:17:18.121Z,1.98
2022-10-19T18:19:44.475Z,3.03
2022-10-19T18:22:10.878Z,2.58
2022-10-19T18:24:38.191Z,2.15
2022-10-19T18:27:04.563Z,2.58
2022-10-19T18:29:30.862Z,3.15
2022-10-19T18:31:57.269Z,3.55
2022-10-19T18:34:24.839Z,4.25
2022-10-19T18:36:51.748Z,5.25
2022-10-19T18:39:18.516Z,4.47
2022-10-19T18:41:44.874Z,6.40
2022-10-19T18:44:12.654Z,6.25
2022-10-19T18:46:40.363Z,6.25
2022-10-19T18:49:08.183Z,4.78
2022-10-19T18:51:35.000Z,4.82
2022-10-19T18:54:03.699Z,5.82
2022-10-19T18:56:30.005Z,4.47
2022-10-19T18:58:56.611Z,4.78
2022-10-19T19:01:26.956Z,4.13
2022-10-19T19:03:57.421Z,4.97
2022-10-19T19:06:24.575Z,4.93
2022-10-19T19:08:51.293Z,4.10
2022-10-19T19:11:19.342Z,4.15
2022-10-19T19:13:49.681Z,5.13
2022-10-19T19:16:16.076Z,4.82
2022-10-19T19:18:42.632Z,4.65
2022-10-19T19:21:25.593Z,5.43
2022-10-19T19:23:52.539Z,5.25
2022-10-19T19:26:21.464Z,4.68
2022-10-19T19:28:50.740Z,4.15
2022-10-19T19:31:17.961Z,4.78
2022-10-19T19:33:45.011Z,4.13
2022-10-19T19:36:12.065Z,4.65
2022-10-19T19:38:38.388Z,4.20
2022-10-19T19:41:05.842Z,4.63
2022-10-19T19:43:32.916Z,4.53
2022-10-19T19:46:03.111Z,4.82
2022-10-19T19:48:32.659Z,4.35
2022-10-19T19:50:59.059Z,4.30
2022-10-19T19:53:25.397Z,4.82
2022-10-19T19:55:51.739Z,4.68
2022-10-19T19:58:18.885Z,5.00
2022-10-19T20:00:45.965Z,4.93
2022-10-19T20:03:13.278Z,4.75
2022-10-19T20:05:42.464Z,5.30
2022-10-19T20:08:09.078Z,5.00
2022-10-19T20:10:39.449Z,5.53
2022-10-19T20:13:05.899Z,4.70
2022-10-19T20:15:32.245Z,4.85
2022-10-19T20:17:58.580Z,5.00
2022-10-19T20:20:24.956Z,5.05
2022-10-19T20:22:51.286Z,5.40
2022-10-19T20:25:18.109Z,5.45
2022-10-19T20:27:44.402Z,5.35
2022-10-19T20:30:11.028Z,5.88
2022-10-19T20:32:37.723Z,5.35
2022-10-19T20:35:04.586Z,5.63
2022-10-19T20:37:31.386Z,5.43
2022-10-19T20:39:57.766Z,6.20
2022-10-19T20:42:24.123Z,6.63
2022-10-19T20:44:50.430Z,7.25
2022-10-19T20:47:17.295Z,6.97
2022-10-19T20:49:43.698Z,7.05
2022-10-19T20:52:10.048Z,7.88
2022-10-19T20:54:36.973Z,8.80
2022-10-19T20:57:03.410Z,5.97
2022-10-19T20:59:31.443Z,5.93
2022-10-19T21:01:57.877Z,6.15
2022-10-19T21:04:25.633Z,4.68
2022-10-19T21:06:52.631Z,4.65
2022-10-19T21:09:21.765Z,4.93
2022-10-19T21:11:50.061Z,4.70
2022-10-19T21:14:17.630Z,4.75
2022-10-19T21:16:44.167Z,4.45
2022-10-19T21:19:12.368Z,4.20
2022-10-19T21:21:39.922Z,4.50
2022-10-19T21:24:20.060Z,4.45
2022-10-19T21:26:46.600Z,4.32
2022-10-19T21:29:13.751Z,4.60
2022-10-19T21:31:44.040Z,4.10
2022-10-19T21:34:17.652Z,4.05
2022-10-19T21:36:43.986Z,3.72
2022-10-19T21:39:10.427Z,4.07
2022-10-19T21:41:36.791Z,4.07
2022-10-19T21:44:03.399Z,3.72
2022-10-19T21:46:29.840Z,4.10
2022-10-19T21:48:56.470Z,3.60
2022-10-19T21:51:32.053Z,4.03
2022-10-19T21:56:24.753Z,3.55
2022-10-19T21:58:52.571Z,3.75
2022-10-19T22:01:20.329Z,4.05
2022-10-19T22:03:46.729Z,3.42
2022-10-19T22:06:13.339Z,3.55
2022-10-19T22:08:43.537Z,3.40
2022-10-19T22:11:10.948Z,3.20
2022-10-19T22:13:37.360Z,3.05
2022-10-19T22:16:11.438Z,3.42
2022-10-19T22:18:38.051Z,3.53
2022-10-19T22:21:05.494Z,3.20
2022-10-19T22:23:31.886Z,2.97
2022-10-19T22:25:58.602Z,3.28
2022-10-19T22:28:24.953Z,3.53
2022-10-19T22:30:58.413Z,3.25
2022-10-19T22:33:25.486Z,3.20
2022-10-19T22:35:59.354Z,2.97
2022-10-19T22:38:27.010Z,3.45
2022-10-19T22:40:53.326Z,3.10
2022-10-19T22:43:20.095Z,3.20
2022-10-19T22:45:47.794Z,3.17
2022-10-19T22:48:14.684Z,2.83
2022-10-19T22:50:41.046Z,3.17
2022-10-19T22:53:07.370Z,3.30
2022-10-19T22:55:33.759Z,3.05
2022-10-19T22:58:00.129Z,3.13
2022-10-19T23:00:26.538Z,2.75
2022-10-19T23:02:53.436Z,2.97
2022-10-19T23:05:19.738Z,3.00
2022-10-19T23:07:46.049Z,2.95
2022-10-19T23:10:12.743Z,2.75
2022-10-19T23:12:39.074Z,2.45
2022-10-19T23:15:05.576Z,2.47
2022-10-19T23:17:32.011Z,2.60
2022-10-19T23:19:58.358Z,2.78
2022-10-19T23:22:24.754Z,2.72
2022-10-19T23:24:51.110Z,2.47
2022-10-19T23:27:17.425Z,2.55
2022-10-19T23:29:43.779Z,2.58
2022-10-19T23:32:10.170Z,2.65
2022-10-19T23:34:36.538Z,3.15
2022-10-19T23:37:02.855Z,3.70
2022-10-19T23:39:29.223Z,3.30
2022-10-19T23:41:55.537Z,3.17
2022-10-19T23:44:21.892Z,3.10
2022-10-19T23:46:48.357Z,3.40
2022-10-19T23:49:14.753Z,3.42
2022-10-19T23:51:41.107Z,3.08
2022-10-19T23:54:07.399Z,2.97
2022-10-19T23:56:33.719Z,3.55
2022-10-19T23:59:00.079Z,3.15
